createdAt,value
2018-10-02T00:02:22.903Z,0.80
2018-10-02T00:04:52.021Z,1.00
2018-10-02T00:07:21.203Z,0.80
2018-10-02T00:09:50.258Z,1.07
2018-10-02T00:12:24.718Z,1.00
2018-10-02T00:14:54.053Z,0.60
2018-10-02T00:17:23.147Z,1.20
2018-10-02T00:19:52.321Z,0.90
2018-10-02T00:22:21.494Z,0.90
2018-10-02T00:24:50.584Z,0.83
2018-10-02T00:27:19.759Z,0.97
2018-10-02T00:29:48.879Z,1.20
2018-10-02T00:32:18.227Z,1.03
2018-10-02T00:34:47.447Z,1.00
2018-10-02T00:37:16.771Z,1.00
2018-10-02T00:39:45.923Z,0.90
2018-10-02T00:42:15.023Z,1.33
2018-10-02T00:44:44.187Z,0.93
2018-10-02T00:47:13.315Z,0.93
2018-10-02T00:49:42.493Z,0.70
2018-10-02T00:52:11.835Z,0.90
2018-10-02T00:54:40.979Z,0.87
2018-10-02T00:57:10.103Z,0.70
2018-10-02T00:59:39.299Z,1.07
2018-10-02T01:02:13.953Z,0.80
2018-10-02T01:04:48.528Z,0.80
2018-10-02T01:07:17.645Z,0.90
2018-10-02T01:09:46.749Z,0.80
2018-10-02T01:12:15.973Z,0.80
2018-10-02T01:14:45.144Z,0.80
2018-10-02T01:17:14.231Z,0.90
2018-10-02T01:19:43.338Z,0.90
2018-10-02T01:22:12.630Z,0.90
2018-10-02T01:24:41.747Z,0.87
2018-10-02T01:27:10.827Z,1.10
2018-10-02T01:29:40.011Z,0.87
2018-10-02T01:32:09.101Z,0.70
2018-10-02T01:34:38.375Z,1.13
2018-10-02T01:37:07.459Z,1.00
2018-10-02T01:39:36.540Z,0.77
2018-10-02T01:42:05.982Z,1.00
2018-10-02T01:44:35.121Z,0.90
2018-10-02T01:47:04.308Z,0.80
2018-10-02T01:49:33.524Z,0.80
2018-10-02T01:52:02.579Z,0.70
2018-10-02T01:54:31.712Z,0.60
2018-10-02T01:57:00.922Z,0.60
2018-10-02T01:59:30.071Z,0.80
2018-10-02T02:01:59.160Z,0.70
2018-10-02T02:04:28.357Z,0.60
2018-10-02T02:06:57.482Z,0.70
2018-10-02T02:09:26.638Z,0.70
2018-10-02T02:11:55.795Z,0.90
2018-10-02T02:14:24.864Z,0.60
2018-10-02T02:16:53.959Z,0.70
2018-10-02T02:19:23.169Z,0.73
2018-10-02T02:21:52.251Z,0.53
2018-10-02T02:24:21.363Z,0.80
2018-10-02T02:26:50.425Z,0.60
2018-10-02T02:29:19.491Z,0.63
2018-10-02T02:31:48.548Z,0.77
2018-10-02T02:34:17.718Z,0.60
2018-10-02T02:36:46.814Z,1.00
2018-10-02T02:39:16.058Z,0.80
2018-10-02T02:41:45.207Z,0.77
2018-10-02T02:44:14.333Z,0.87
2018-10-02T02:46:43.441Z,1.03
2018-10-02T02:49:18.011Z,0.80
2018-10-02T02:51:47.241Z,0.87
2018-10-02T02:54:16.360Z,0.60
2018-10-02T02:56:45.571Z,1.00
2018-10-02T02:59:14.800Z,0.87
2018-10-02T03:01:43.929Z,0.80
2018-10-02T03:04:13.013Z,0.83
2018-10-02T03:06:42.264Z,1.03
2018-10-02T03:09:11.452Z,0.83
2018-10-02T03:11:40.521Z,0.80
2018-10-02T03:14:09.724Z,1.00
2018-10-02T03:16:38.810Z,0.83
2018-10-02T03:19:07.896Z,0.67
2018-10-02T03:21:37.092Z,0.90
2018-10-02T03:24:06.303Z,1.00
2018-10-02T03:26:35.405Z,1.03
2018-10-02T03:29:04.772Z,0.90
2018-10-02T03:31:33.781Z,1.07
2018-10-02T03:34:02.879Z,0.83
2018-10-02T03:36:32.000Z,1.10
2018-10-02T03:39:01.090Z,1.00
2018-10-02T03:41:30.275Z,1.00
2018-10-02T03:43:59.414Z,1.20
2018-10-02T03:46:28.556Z,0.80
2018-10-02T03:48:57.765Z,0.80
2018-10-02T03:51:26.956Z,1.03
2018-10-02T03:53:56.100Z,0.93
2018-10-02T03:56:25.196Z,1.13
2018-10-02T03:58:54.370Z,0.87
2018-10-02T04:01:23.462Z,1.20
2018-10-02T04:03:52.560Z,0.93
2018-10-02T04:06:21.636Z,0.80
2018-10-02T04:08:50.759Z,0.80
2018-10-02T04:11:19.860Z,1.03
2018-10-02T04:13:48.977Z,1.10
2018-10-02T04:16:17.978Z,1.00
2018-10-02T04:18:47.090Z,1.30
2018-10-02T04:21:20.238Z,1.30
2018-10-02T04:23:49.284Z,0.93
2018-10-02T04:26:18.356Z,1.30
2018-10-02T04:28:47.412Z,1.00
2018-10-02T04:31:16.514Z,1.33
2018-10-02T04:33:45.642Z,1.20
2018-10-02T04:36:14.851Z,1.40
2018-10-02T04:38:43.972Z,1.30
2018-10-02T04:41:13.159Z,1.23
2018-10-02T04:43:42.320Z,1.30
2018-10-02T04:46:11.354Z,1.40
2018-10-02T04:48:40.436Z,1.60
2018-10-02T04:51:09.507Z,1.50
2018-10-02T04:53:38.603Z,1.20
2018-10-02T04:56:07.810Z,1.23
2018-10-02T04:58:37.035Z,1.30
2018-10-02T05:01:06.229Z,1.40
2018-10-02T05:03:35.296Z,1.13
2018-10-02T05:06:04.439Z,1.30
2018-10-02T05:08:33.506Z,1.20
2018-10-02T05:11:02.609Z,1.23
2018-10-02T05:13:31.674Z,1.37
2018-10-02T05:16:00.760Z,1.20
2018-10-02T05:18:29.876Z,1.40
2018-10-02T05:20:58.863Z,1.37
2018-10-02T05:23:28.023Z,1.40
2018-10-02T05:25:57.092Z,1.40
2018-10-02T05:28:26.171Z,1.30
2018-10-02T05:30:55.341Z,1.60
2018-10-02T05:33:24.410Z,2.00
2018-10-02T05:35:53.480Z,1.40
2018-10-02T05:38:22.585Z,1.50
2018-10-02T05:40:51.687Z,1.30
2018-10-02T05:43:20.783Z,1.30
2018-10-02T05:45:49.899Z,1.10
2018-10-02T05:48:18.991Z,1.30
2018-10-02T05:50:48.195Z,1.77
2018-10-02T05:53:17.404Z,1.27
2018-10-02T05:55:46.555Z,1.80
2018-10-02T05:58:15.820Z,1.27
2018-10-02T06:00:45.065Z,1.37
2018-10-02T06:03:14.193Z,1.63
2018-10-02T06:05:43.349Z,1.63
2018-10-02T06:08:12.502Z,1.30
2018-10-02T06:10:41.658Z,1.37
2018-10-02T06:13:10.747Z,1.30
2018-10-02T06:15:39.723Z,0.87
2018-10-02T06:18:08.901Z,1.53
2018-10-02T06:20:38.180Z,1.53
2018-10-02T06:23:07.327Z,1.20
2018-10-02T06:25:36.427Z,1.53
2018-10-02T06:28:05.704Z,1.40
2018-10-02T06:30:34.855Z,1.17
2018-10-02T06:33:04.076Z,1.27
2018-10-02T06:35:33.230Z,1.23
2018-10-02T06:38:02.415Z,1.57
2018-10-02T06:40:31.623Z,1.20
2018-10-02T06:43:00.693Z,1.00
2018-10-02T06:45:29.778Z,1.03
2018-10-02T06:47:58.871Z,1.20
2018-10-02T06:50:28.011Z,1.17
2018-10-02T06:52:57.269Z,1.53
2018-10-02T06:55:26.428Z,1.30
2018-10-02T06:57:55.517Z,1.50
2018-10-02T07:00:24.683Z,1.30
2018-10-02T07:02:54.117Z,1.30
2018-10-02T07:05:23.382Z,1.60
2018-10-02T07:07:52.468Z,1.57
2018-10-02T07:10:21.751Z,1.27
2018-10-02T07:12:50.832Z,1.47
2018-10-02T07:15:19.927Z,1.00
2018-10-02T07:17:49.026Z,1.80
2018-10-02T07:20:18.154Z,1.23
2018-10-02T07:22:47.222Z,1.83
2018-10-02T07:25:16.317Z,1.40
2018-10-02T07:27:45.506Z,1.47
2018-10-02T07:30:14.733Z,1.33
2018-10-02T07:32:43.889Z,1.33
2018-10-02T07:35:13.089Z,1.30
2018-10-02T07:37:42.265Z,1.57
2018-10-02T07:40:11.337Z,1.40
2018-10-02T07:42:40.420Z,1.10
2018-10-02T07:45:09.485Z,1.20
2018-10-02T07:47:38.709Z,1.23
2018-10-02T07:50:07.924Z,1.20
2018-10-02T07:52:36.991Z,1.53
2018-10-02T07:55:06.096Z,1.40
2018-10-02T07:57:35.236Z,1.17
2018-10-02T08:00:05.012Z,1.20
2018-10-02T08:02:34.326Z,1.80
2018-10-02T08:05:03.731Z,1.70
2018-10-02T08:07:32.909Z,1.50
2018-10-02T08:10:02.196Z,1.20
2018-10-02T08:12:31.612Z,1.17
2018-10-02T08:15:00.904Z,1.63
2018-10-02T08:17:30.264Z,1.17
2018-10-02T08:19:59.560Z,1.27
2018-10-02T08:22:28.800Z,1.30
2018-10-02T08:24:57.859Z,1.40
2018-10-02T08:27:27.001Z,1.20
2018-10-02T08:29:56.240Z,1.30
2018-10-02T08:32:25.503Z,1.40
2018-10-02T08:34:54.737Z,1.10
2018-10-02T08:37:23.823Z,1.53
2018-10-02T08:39:52.932Z,1.50
2018-10-02T08:42:22.028Z,1.70
2018-10-02T08:44:51.113Z,1.50
2018-10-02T08:47:20.428Z,1.30
2018-10-02T08:49:49.433Z,1.50
2018-10-02T08:52:18.549Z,1.40
2018-10-02T08:54:47.784Z,1.20
2018-10-02T08:57:16.918Z,1.53
2018-10-02T08:59:46.063Z,1.97
2018-10-02T09:02:15.206Z,1.17
2018-10-02T09:04:44.443Z,1.70
2018-10-02T09:07:13.762Z,1.30
2018-10-02T09:09:42.923Z,1.43
2018-10-02T09:12:11.987Z,1.70
2018-10-02T09:14:41.091Z,1.77
2018-10-02T09:17:10.337Z,1.60
2018-10-02T09:19:39.464Z,3.23
2018-10-02T09:22:08.567Z,3.80
2018-10-02T09:24:37.818Z,5.20
2018-10-02T09:27:07.344Z,5.50
2018-10-02T09:29:40.545Z,6.53
2018-10-02T09:32:15.015Z,7.43
2018-10-02T09:35:48.903Z,7.73
2018-10-02T09:38:23.451Z,7.53
2018-10-02T09:40:57.841Z,8.17
2018-10-02T09:43:40.619Z,7.87
2018-10-02T09:46:10.029Z,8.17
2018-10-02T09:48:39.169Z,7.23
2018-10-02T09:51:08.600Z,8.20
2018-10-02T09:53:37.805Z,6.70
2018-10-02T09:56:07.111Z,8.20
2018-10-02T09:58:36.433Z,8.80
2018-10-02T10:01:07.354Z,8.03
2018-10-02T10:03:36.714Z,8.03
2018-10-02T10:06:05.938Z,7.37
2018-10-02T10:08:35.270Z,7.00
2018-10-02T10:11:04.544Z,7.97
2018-10-02T10:13:33.769Z,8.23
2018-10-02T10:16:03.151Z,7.60
2018-10-02T10:18:32.371Z,7.17
2018-10-02T10:21:01.570Z,7.20
2018-10-02T10:23:30.739Z,7.60
2018-10-02T10:25:59.938Z,6.90
2018-10-02T10:28:29.196Z,7.63
2018-10-02T10:30:58.496Z,5.90
2018-10-02T10:33:27.804Z,6.17
2018-10-02T10:35:57.142Z,6.03
2018-10-02T10:38:26.354Z,6.50
2018-10-02T10:40:55.773Z,6.73
2018-10-02T10:43:25.103Z,5.27
2018-10-02T10:45:54.383Z,4.97
2018-10-02T10:48:23.561Z,5.40
2018-10-02T10:50:52.746Z,4.83
2018-10-02T10:53:21.988Z,5.27
2018-10-02T10:55:51.191Z,4.80
2018-10-02T10:58:20.434Z,4.73
2018-10-02T11:00:49.651Z,4.60
2018-10-02T11:03:18.923Z,4.50
2018-10-02T11:05:48.095Z,4.43
2018-10-02T11:08:17.425Z,4.20
2018-10-02T11:10:46.636Z,4.23
2018-10-02T11:13:15.983Z,4.67
2018-10-02T11:15:45.319Z,4.00
2018-10-02T11:18:14.652Z,4.13
2018-10-02T11:20:43.868Z,3.33
2018-10-02T11:23:13.041Z,3.67
2018-10-02T11:25:42.365Z,3.63
2018-10-02T11:28:11.743Z,3.53
2018-10-02T11:30:40.961Z,4.60
2018-10-02T11:33:10.227Z,4.77
2018-10-02T11:35:39.427Z,4.73
2018-10-02T11:38:08.638Z,7.17
2018-10-02T11:40:37.836Z,7.20
2018-10-02T11:43:07.197Z,7.30
2018-10-02T11:45:36.576Z,6.93
2018-10-02T11:48:05.742Z,7.03
2018-10-02T11:50:34.977Z,6.47
2018-10-02T11:53:04.176Z,6.37
2018-10-02T11:55:33.380Z,6.27
2018-10-02T11:58:02.784Z,4.67
2018-10-02T12:00:32.047Z,6.30
2018-10-02T12:03:01.552Z,5.00
2018-10-02T12:05:30.732Z,4.77
2018-10-02T12:07:59.933Z,4.93
2018-10-02T12:10:29.232Z,4.77
2018-10-02T12:12:58.443Z,4.10
2018-10-02T12:15:27.944Z,4.83
2018-10-02T12:17:57.144Z,4.57
2018-10-02T12:20:26.336Z,4.67
2018-10-02T12:22:55.581Z,4.60
2018-10-02T12:25:24.799Z,4.53
2018-10-02T12:27:54.133Z,4.13
2018-10-02T12:30:23.421Z,5.13
2018-10-02T12:32:52.583Z,4.20
2018-10-02T12:35:21.805Z,3.80
2018-10-02T12:37:51.385Z,3.97
2018-10-02T12:40:20.518Z,3.70
2018-10-02T12:42:49.840Z,3.57
2018-10-02T12:45:19.187Z,5.17
2018-10-02T12:47:48.343Z,3.90
2018-10-02T12:50:17.532Z,3.33
2018-10-02T12:52:46.832Z,3.30
2018-10-02T12:55:16.177Z,3.53
2018-10-02T12:57:45.420Z,3.30
2018-10-02T13:00:14.610Z,3.47
2018-10-02T13:02:43.884Z,3.17
2018-10-02T13:05:13.098Z,3.50
2018-10-02T13:07:42.241Z,2.77
2018-10-02T13:10:11.569Z,2.97
2018-10-02T13:12:40.810Z,3.33
2018-10-02T13:15:10.017Z,2.87
2018-10-02T13:17:39.219Z,2.77
2018-10-02T13:20:08.555Z,2.80
2018-10-02T13:22:37.843Z,2.83
2018-10-02T13:25:07.141Z,2.73
2018-10-02T13:27:36.559Z,3.17
2018-10-02T13:30:05.829Z,2.63
2018-10-02T13:32:34.956Z,2.40
2018-10-02T13:35:04.394Z,2.80
2018-10-02T13:37:33.597Z,2.90
2018-10-02T13:40:02.732Z,2.50
2018-10-02T13:42:31.925Z,3.10
2018-10-02T13:45:01.136Z,2.33
2018-10-02T13:47:30.898Z,2.80
2018-10-02T13:50:00.076Z,2.47
2018-10-02T13:52:29.272Z,2.13
2018-10-02T13:54:58.482Z,2.57
2018-10-02T13:57:27.661Z,2.13
2018-10-02T13:59:56.878Z,1.80
2018-10-02T14:02:26.058Z,1.50
2018-10-02T14:04:55.226Z,2.00
2018-10-02T14:07:24.624Z,2.00
2018-10-02T14:09:53.782Z,1.73
2018-10-02T14:12:22.956Z,1.80
2018-10-02T14:14:52.194Z,1.77
2018-10-02T14:17:21.534Z,2.03
2018-10-02T14:19:50.728Z,1.87
2018-10-02T14:22:19.992Z,1.70
2018-10-02T14:24:49.143Z,1.87
2018-10-02T14:27:18.336Z,1.87
2018-10-02T14:29:47.547Z,2.07
2018-10-02T14:32:16.808Z,2.00
2018-10-02T14:34:45.954Z,1.97
2018-10-02T14:37:15.140Z,2.07
2018-10-02T14:39:44.290Z,1.63
2018-10-02T14:42:13.556Z,2.10
2018-10-02T14:44:42.799Z,1.93
2018-10-02T14:47:12.008Z,1.77
2018-10-02T14:49:41.213Z,1.73
2018-10-02T14:52:10.545Z,1.57
2018-10-02T14:54:39.727Z,1.53
2018-10-02T14:57:08.804Z,1.70
2018-10-02T14:59:38.106Z,1.73
2018-10-02T15:02:07.262Z,2.00
2018-10-02T15:04:36.516Z,1.60
2018-10-02T15:07:06.011Z,1.30
2018-10-02T15:09:35.325Z,1.40
2018-10-02T15:12:04.665Z,1.77
2018-10-02T15:14:34.012Z,1.90
2018-10-02T15:17:03.203Z,1.83
2018-10-02T15:19:32.368Z,1.73
2018-10-02T15:22:01.704Z,1.60
2018-10-02T15:24:32.436Z,1.80
2018-10-02T15:27:01.759Z,2.20
2018-10-02T15:29:30.931Z,1.50
2018-10-02T15:32:00.122Z,1.70
2018-10-02T15:34:29.314Z,1.67
2018-10-02T15:36:58.633Z,1.53
2018-10-02T15:39:27.864Z,1.70
2018-10-02T15:41:57.036Z,1.70
2018-10-02T15:44:26.311Z,1.77
2018-10-02T15:46:55.832Z,1.87
2018-10-02T15:49:25.182Z,1.70
2018-10-02T15:51:54.376Z,1.87
2018-10-02T15:54:23.584Z,2.20
2018-10-02T15:56:52.728Z,1.67
2018-10-02T15:59:21.932Z,1.70
2018-10-02T16:01:51.171Z,1.73
2018-10-02T16:04:20.328Z,1.93
2018-10-02T16:06:49.635Z,1.63
2018-10-02T16:09:18.803Z,1.80
2018-10-02T16:11:48.104Z,1.80
2018-10-02T16:14:17.357Z,1.67
2018-10-02T16:16:46.573Z,2.13
2018-10-02T16:19:15.763Z,1.63
2018-10-02T16:21:45.023Z,2.10
2018-10-02T16:24:14.320Z,2.23
2018-10-02T16:26:43.522Z,1.77
2018-10-02T16:29:12.723Z,1.63
2018-10-02T16:31:41.934Z,1.70
2018-10-02T16:34:11.123Z,2.03
2018-10-02T16:36:40.304Z,1.70
2018-10-02T16:39:09.964Z,1.80
2018-10-02T16:41:39.250Z,1.80
2018-10-02T16:44:08.464Z,2.13
2018-10-02T16:46:37.669Z,1.70
2018-10-02T16:49:06.842Z,1.50
2018-10-02T16:51:36.032Z,1.83
2018-10-02T16:54:05.356Z,1.80
2018-10-02T16:56:34.593Z,1.90
2018-10-02T16:59:03.835Z,1.50
2018-10-02T17:01:33.136Z,1.80
2018-10-02T17:04:02.377Z,2.10
2018-10-02T17:06:31.930Z,1.77
2018-10-02T17:09:04.030Z,2.07
2018-10-02T17:11:33.236Z,1.67
2018-10-02T17:14:02.511Z,2.40
2018-10-02T17:16:31.718Z,1.90
2018-10-02T17:19:01.040Z,1.50
2018-10-02T17:21:30.396Z,1.50
2018-10-02T17:23:59.824Z,2.10
2018-10-02T17:26:29.089Z,1.90
2018-10-02T17:28:58.406Z,1.97
2018-10-02T17:31:27.906Z,2.00
2018-10-02T17:33:57.874Z,2.10
2018-10-02T17:36:27.343Z,1.90
2018-10-02T17:38:56.781Z,1.70
2018-10-02T17:41:26.025Z,1.93
2018-10-02T17:43:55.182Z,1.80
2018-10-02T17:46:24.671Z,1.60
2018-10-02T17:48:53.999Z,1.57
2018-10-02T17:51:23.764Z,2.03
2018-10-02T17:53:53.155Z,1.77
2018-10-02T17:56:22.457Z,1.73
2018-10-02T17:58:51.755Z,1.40
2018-10-02T18:01:21.163Z,1.70
2018-10-02T18:03:50.472Z,1.70
2018-10-02T18:06:20.007Z,1.70
2018-10-02T18:08:49.205Z,1.50
2018-10-02T18:11:18.308Z,1.60
2018-10-02T18:13:47.678Z,2.00
2018-10-02T18:16:17.464Z,1.43
2018-10-02T18:18:46.713Z,1.60
2018-10-02T18:21:16.100Z,1.80
2018-10-02T18:23:45.383Z,1.50
2018-10-02T18:26:14.571Z,1.10
2018-10-02T18:28:43.857Z,1.53
2018-10-02T18:31:13.072Z,1.80
2018-10-02T18:33:42.390Z,1.70
2018-10-02T18:36:11.801Z,1.40
2018-10-02T18:38:41.022Z,1.57
2018-10-02T18:41:10.554Z,2.00
2018-10-02T18:43:39.927Z,1.80
2018-10-02T18:46:09.482Z,1.40
2018-10-02T18:48:38.848Z,1.50
2018-10-02T18:51:09.363Z,1.40
2018-10-02T18:53:38.932Z,1.57
2018-10-02T18:56:08.557Z,1.70
2018-10-02T18:58:37.859Z,1.67
2018-10-02T19:01:07.552Z,2.00
2018-10-02T19:03:36.985Z,1.83
2018-10-02T19:06:06.235Z,1.70
2018-10-02T19:08:40.727Z,1.60
2018-10-02T19:11:15.547Z,1.57
2018-10-02T19:13:44.766Z,2.00
2018-10-02T19:16:19.394Z,2.00
2018-10-02T19:18:48.784Z,3.57
2018-10-02T19:21:18.313Z,5.17
2018-10-02T19:23:47.682Z,4.83
2018-10-02T19:26:21.102Z,5.87
2018-10-02T19:28:50.615Z,5.97
2018-10-02T19:31:25.803Z,5.97
2018-10-02T19:33:55.275Z,6.73
2018-10-02T19:36:24.937Z,6.47
2018-10-02T19:38:58.075Z,5.93
2018-10-02T19:41:28.383Z,6.40
2018-10-02T19:43:57.621Z,6.57
2018-10-02T19:46:28.765Z,6.53
2018-10-02T19:48:58.113Z,5.70
2018-10-02T19:51:33.199Z,5.93
2018-10-02T19:54:02.385Z,5.77
2018-10-02T19:56:31.777Z,5.53
2018-10-02T19:59:00.920Z,6.10
2018-10-02T20:01:30.182Z,5.40
2018-10-02T20:03:59.505Z,5.90
2018-10-02T20:06:28.809Z,5.60
2018-10-02T20:08:58.439Z,5.07
2018-10-02T20:11:27.607Z,5.30
2018-10-02T20:13:56.931Z,5.10
2018-10-02T20:16:26.190Z,5.63
2018-10-02T20:18:55.418Z,5.47
2018-10-02T20:21:24.685Z,4.80
2018-10-02T20:23:54.116Z,6.07
2018-10-02T20:26:23.345Z,4.87
2018-10-02T20:28:52.695Z,5.40
2018-10-02T20:31:22.585Z,5.70
2018-10-02T20:33:52.097Z,5.93
2018-10-02T20:36:21.457Z,4.63
2018-10-02T20:38:50.693Z,3.90
2018-10-02T20:41:19.899Z,4.47
2018-10-02T20:43:49.065Z,4.17
2018-10-02T20:46:18.249Z,4.43
2018-10-02T20:48:47.431Z,4.93
2018-10-02T20:51:16.604Z,4.93
2018-10-02T20:53:45.811Z,3.90
2018-10-02T20:56:15.039Z,4.23
2018-10-02T20:58:44.227Z,4.93
2018-10-02T21:01:13.545Z,4.87
2018-10-02T21:03:42.689Z,4.13
2018-10-02T21:06:12.125Z,4.13
2018-10-02T21:08:43.155Z,4.27
2018-10-02T21:11:12.419Z,3.90
2018-10-02T21:13:41.797Z,3.87
2018-10-02T21:16:10.989Z,3.90
2018-10-02T21:18:40.267Z,4.30
2018-10-02T21:21:09.481Z,3.70
2018-10-02T21:23:38.660Z,3.80
2018-10-02T21:26:07.872Z,4.07
2018-10-02T21:28:37.047Z,4.10
2018-10-02T21:31:06.507Z,4.00
2018-10-02T21:33:35.783Z,4.33
2018-10-02T21:36:05.097Z,3.73
2018-10-02T21:38:34.315Z,3.70
2018-10-02T21:41:03.472Z,3.63
2018-10-02T21:43:32.818Z,4.00
2018-10-02T21:46:01.980Z,3.33
2018-10-02T21:48:31.185Z,3.90
2018-10-02T21:51:00.560Z,3.40
2018-10-02T21:53:29.794Z,4.00
2018-10-02T21:55:59.011Z,3.47
2018-10-02T21:58:28.390Z,3.17
2018-10-02T22:01:02.849Z,3.70
2018-10-02T22:03:32.758Z,3.27
2018-10-02T22:06:02.132Z,3.60
2018-10-02T22:08:31.312Z,3.33
2018-10-02T22:11:00.483Z,3.50
2018-10-02T22:13:29.676Z,3.43
2018-10-02T22:15:59.222Z,3.00
2018-10-02T22:18:28.460Z,3.30
2018-10-02T22:20:57.780Z,3.53
2018-10-02T22:23:27.111Z,3.30
2018-10-02T22:25:56.268Z,3.43
2018-10-02T22:28:25.442Z,3.00
2018-10-02T22:30:54.633Z,3.47
2018-10-02T22:33:23.856Z,3.17
2018-10-02T22:35:53.223Z,2.97
2018-10-02T22:38:22.509Z,3.20
2018-10-02T22:40:51.779Z,3.70
2018-10-02T22:43:21.101Z,3.50
2018-10-02T22:45:50.292Z,2.83
2018-10-02T22:48:19.495Z,3.20
2018-10-02T22:50:48.678Z,2.90
2018-10-02T22:53:17.913Z,2.83
2018-10-02T22:55:47.139Z,3.20
2018-10-02T22:58:16.295Z,2.77
2018-10-02T23:00:45.826Z,3.67
2018-10-02T23:03:15.007Z,2.83
2018-10-02T23:05:44.275Z,3.17
2018-10-02T23:08:13.531Z,2.87
2018-10-02T23:10:42.739Z,2.87
2018-10-02T23:13:11.977Z,3.20
2018-10-02T23:15:41.176Z,3.17
2018-10-02T23:18:10.429Z,2.90
2018-10-02T23:20:39.617Z,3.43
2018-10-02T23:23:08.787Z,2.80
2018-10-02T23:25:38.107Z,2.60
2018-10-02T23:28:07.271Z,3.23
2018-10-02T23:30:36.476Z,2.40
2018-10-02T23:33:05.780Z,2.73
2018-10-02T23:35:34.951Z,2.80
2018-10-02T23:38:04.209Z,3.17
2018-10-02T23:40:33.359Z,3.57
2018-10-02T23:43:02.663Z,2.70
2018-10-02T23:45:31.829Z,2.50
2018-10-02T23:48:01.043Z,2.73
2018-10-02T23:50:30.201Z,2.80
2018-10-02T23:52:59.345Z,3.00
2018-10-02T23:55:28.651Z,2.83
2018-10-02T23:57:57.948Z,2.60
